Ios, Greece
Current Conditions -  °F | °C
As of 10:50 AM on Monday 20 Oct 2014 (Local Time) from LGSR Reporting Station
Clear Clear  
Wind Chill: 68°   Ceiling: Unl
Heat Index: 68°   Visibility: 6mi
Dew Point: 50°   Wind: 17mph
Humidity: 52%   Direction: 350°N
Pressure: 30.12"   Gusts: NA
Location:  36.73°N, 25.28°E
Report Text: LGSR 200750Z 35015KT CAVOK 20/10 Q1020
Loading
Personal Weather Stations






























Interactive Weather Map
Tropical Storm Tracking
New forecast layout! Learn more

10-Day Weather Forecast

Advertisements
Track Severe Weather on mobile